Terminal Aerodrome Forecast
Issued by NWS Mt. Holly, NJ

Home | Current Version | Previous Version | Text Only | Print | Product List | Glossary On
Versions: 1 2 3 4 5 6 7 8 9 10 11 12 13 14 15 16 17 18 19 20 21 22
000
FTUS41 KPHI 232100 AAA
TAFTTN
TAF AMD
KTTN 232100Z 2321/2418 32010G18KT P6SM SCT028 OVC045
      TEMPO 2321/2323 -RA OVC028
     FM240000 32008KT P6SM OVC040
     FM241400 32010G18KT P6SM BKN045=

USA.gov is the U.S. government's official web portal to all federal, state and local government web resources and services.